Kendall Park, New Jersey
Current Conditions -  °F | °C
As of 9:53 AM on Tuesday 21 Oct 2014 (Local Time) from KSMQ Reporting Station
Broken Clouds Broken Clouds  
Wind Chill: 56°   Ceiling: 6000
Heat Index: 56°   Visibility: 10mi
Dew Point: 48°   Wind: 0mph
Humidity: 75%   Direction: NA
Pressure: 29.89"   Gusts: NA
Location:  40.44°N, 74.54°W
Report Text: KSMQ 211353Z AUTO 00000KT 10SM BKN060 13/09 A2989 RMK AO2 RAB03E18 SLP120 P0001 T01330089
Loading
Personal Weather Stations






























Interactive Weather Map New forecast layout! Learn more

10-Day Weather Forecast

Advertisements
Track Severe Weather on mobile